Time;durP1;ratioP1;P1;durP2;ratioP2;P2;SDS_P1;SDS_P2;PMS_P1;PMS_P2;Temp;Humidity;BMP_temperature;BMP_pressure;BME280_temperature;BME280_humidity;BME280_pressure;Samples;Min_cycle;Max_cycle;Signal;HPM_P1;HPM_P2
2021/03/01 05:31:08;;;;;;;12.80;9.43;;;;;;;5.22;52.33;95362.03;828222;71;28209;-77
2021/03/01 05:46:16;;;;;;;14.60;9.85;;;;;;;6.85;50.01;95370.05;823711;70;32769;-80
2021/03/01 06:01:10;;;;;;;15.25;10.70;;;;;;;9.56;45.44;95363.44;828088;71;30207;-78
2021/03/01 06:16:15;;;;;;;18.55;12.33;;;;;;;12.06;40.27;95353.33;827435;71;32799;-77
2021/03/01 06:31:11;;;;;;;14.78;10.88;;;;;;;13.48;37.73;95319.17;833931;71;29703;-76
2021/03/01 06:46:15;;;;;;;15.20;11.60;;;;;;;14.71;35.29;95313.80;826987;71;33845;-77
2021/03/01 07:01:12;;;;;;;16.90;13.30;;;;;;;15.13;34.42;95332.53;833720;71;30389;-78
2021/03/01 07:16:15;;;;;;;16.05;11.57;;;;;;;15.13;34.41;95348.94;827141;71;33334;-78
2021/03/01 07:31:12;;;;;;;17.12;12.03;;;;;;;15.40;34.22;95379.30;827934;71;30255;-79
2021/03/01 07:46:08;;;;;;;16.05;12.30;;;;;;;15.43;34.34;95369.46;824082;71;29772;-79
2021/03/01 08:01:15;;;;;;;15.30;11.43;;;;;;;15.76;34.37;95362.70;833736;71;32556;-77
2021/03/01 08:16:19;;;;;;;17.00;12.33;;;;;;;16.17;33.68;95363.08;835164;71;32743;-79
2021/03/01 08:31:21;;;;;;;15.03;11.90;;;;;;;16.98;33.31;95358.16;833439;71;33087;-76
2021/03/01 08:46:19;;;;;;;16.32;12.70;;;;;;;17.59;32.17;95355.64;822403;70;32787;-76
2021/03/01 09:01:24;;;;;;;14.25;11.18;;;;;;;18.31;30.73;95341.53;828955;71;29747;-77
2021/03/01 09:16:14;;;;;;;13.85;10.28;;;;;;;18.62;29.69;95342.61;834172;71;30263;-78
2021/03/01 09:31:11;;;;;;;12.93;10.78;;;;;;;19.65;28.34;95331.02;828181;71;29362;-77
2021/03/01 09:46:10;;;;;;;10.53;9.03;;;;;;;20.72;26.88;95327.33;818297;71;29292;-77
2021/03/01 10:01:21;;;;;;;12.45;10.20;;;;;;;18.96;26.87;95332.98;828552;71;30082;-79
2021/03/01 10:16:14;;;;;;;10.68;8.53;;;;;;;19.87;26.53;95331.27;827884;71;31001;-77
2021/03/01 10:31:17;;;;;;;11.22;8.33;;;;;;;20.31;25.61;95320.98;827231;71;32494;-75
2021/03/01 10:46:09;;;;;;;9.53;8.40;;;;;;;20.58;25.50;95309.51;827777;71;29336;-77
2021/03/01 11:01:09;;;;;;;11.18;9.50;;;;;;;19.11;26.41;95293.08;833824;71;28678;-79
2021/03/01 11:16:08;;;;;;;12.18;9.65;;;;;;;17.70;28.30;95275.70;823728;71;29143;-78
2021/03/01 11:31:14;;;;;;;10.55;9.45;;;;;;;16.64;29.65;95269.98;833874;71;31797;-79
2021/03/01 11:46:08;;;;;;;10.70;9.45;;;;;;;15.25;31.09;95262.48;828071;71;29736;-74
2021/03/01 12:01:10;;;;;;;12.90;9.40;;;;;;;14.41;31.87;95266.48;827984;71;28647;-77
2021/03/01 12:16:10;;;;;;;13.98;8.80;;;;;;;12.85;33.65;95290.45;828625;71;29182;-78
2021/03/01 12:31:23;;;;;;;12.33;9.60;;;;;;;11.53;36.38;95315.80;833806;71;31829;-78
2021/03/01 12:46:09;;;;;;;12.90;9.55;;;;;;;10.76;38.91;95327.98;831733;70;29359;-77
2021/03/01 13:01:16;;;;;;;11.60;9.80;;;;;;;;;;828784;71;32352;-77
2021/03/01 13:16:15;;;;;;;20.80;9.65;;;;;;;9.99;41.65;95354.30;827569;71;32312;-76
2021/03/01 13:31:15;;;;;;;13.72;9.23;;;;;;;9.07;43.66;95380.84;828590;71;31843;-78
2021/03/01 13:32:19;;;;;;;12.13;10.35;;;;;;;9.01;43.93;95387.34;813129;72;25293;-80
2021/03/01 13:33:23;;;;;;;12.30;10.18;;;;;;;9.02;44.15;95389.44;811705;73;25262;-79
2021/03/01 13:34:26;;;;;;;10.95;9.80;;;;;;;9.06;44.23;95387.88;796462;72;25543;-78
2021/03/01 13:35:30;;;;;;;12.25;9.80;;;;;;;9.13;44.23;95389.77;802118;72;25288;-78
2021/03/01 13:36:34;;;;;;;15.95;10.58;;;;;;;9.21;44.16;95395.03;797322;72;25327;-78
2021/03/01 13:37:38;;;;;;;11.97;10.28;;;;;;;9.28;44.01;95392.95;801240;74;25268;-78
2021/03/01 13:38:42;;;;;;;15.15;10.10;;;;;;;9.34;43.91;95400.31;801357;72;25305;-78
2021/03/01 13:39:46;;;;;;;11.30;10.05;;;;;;;9.38;43.90;95399.53;800850;74;25253;-76
2021/03/01 13:40:50;;;;;;;11.48;10.18;;;;;;;9.48;44.01;95401.41;800817;74;25264;-78
2021/03/01 13:41:54;;;;;;;10.80;9.63;;;;;;;9.53;43.83;95396.69;800681;74;25279;-74
2021/03/01 13:42:57;;;;;;;12.23;10.72;;;;;;;9.59;43.72;95397.78;800936;74;25683;-80
2021/03/01 13:44:03;;;;;;;12.13;10.05;;;;;;;9.63;43.36;95400.67;800412;74;25731;-77
2021/03/01 13:45:11;;;;;;;15.43;10.93;;;;;;;9.58;43.38;95395.41;799526;74;25285;-75
2021/03/01 13:46:14;;;;;;;15.38;11.05;;;;;;;9.59;43.37;95412.19;800935;72;25290;-78
2021/03/01 14:01:22;;;;;;;11.90;9.85;;;;;;;8.43;45.29;95406.11;833678;71;32708;-77
2021/03/01 14:16:15;;;;;;;12.15;9.83;;;;;;;8.45;45.53;95412.40;833626;71;32815;-75
2021/03/01 14:31:10;;;;;;;11.38;9.13;;;;;;;8.65;45.27;95420.38;827596;71;30393;-77
2021/03/01 14:46:17;;;;;;;11.88;9.53;;;;;;;8.71;44.71;95434.29;818671;71;32826;-75
2021/03/01 15:01:25;;;;;;;12.90;10.03;;;;;;;8.66;45.22;95440.28;823117;71;30363;-75
2021/03/01 15:16:11;;;;;;;14.07;10.98;;;;;;;8.48;45.77;95449.83;833790;71;29914;-80
2021/03/01 15:31:09;;;;;;;9.18;7.45;;;;;;;7.38;50.94;95481.64;833700;71;30157;-78
2021/03/01 15:46:20;;;;;;;12.70;8.65;;;;;;;7.23;51.70;95501.02;827244;71;32748;-76
2021/03/01 16:01:09;;;;;;;9.80;7.60;;;;;;;7.26;52.04;95512.29;833853;71;29328;-75
